• Join FlightAware (Why Join?)
  • Login
  • US Flag 
02:29AM EST


 

Airport Tracker/Info


-or-


 

Live Flight TrackerFlight Track Log ✈ QFA1051 ✈ 13-Oct-2013 ✈ YBRM / BME - YMML / MEL

Flight Track Log - Related Links

Times and Time Zones

All times are in EDT time to prevent confusion due to time zone crossing. See the QFA1051 flight status page for this flight to view local times or setup timezone preferences in your user account.

Time Position Orientation Groundspeed Altitude Reporting Facility
EDT Latitude Longitude Course Direction KTS MPH feet Rate Location/Type
11:36PM -18.1264 122.3684 144° Southeast  Level FlightAware Approximate
11:37PM -18.2367 122.4517 144° Southeast  Level FlightAware Approximate
11:37PM -17.9496 122.2277 143° Southeast 35,000  Level Aus ATC (Calculated)
11:39PM -18.1705 122.3945 144° Southeast  Level FlightAware Approximate
11:40PM -18.2818 122.4788 144° Southeast  Level FlightAware Approximate
11:41PM -18.3931 122.5631 144° Southeast  Level FlightAware Approximate
11:41PM -18.4202 122.5837 143° Southeast 35,000  Level Aus ATC (Calculated)
11:43PM -18.5767 122.7026 144° Southeast  Level FlightAware Approximate
11:44PM -18.6884 122.7877 144° Southeast  Level FlightAware Approximate
11:44PM -18.7800 122.8575 143° Southeast 35,000  Level Aus ATC (Calculated)
11:45PM -18.8001 122.8728 144° Southeast  Level FlightAware Approximate
11:45PM -18.8258 122.8925 143° Southeast 35,000  Level Aus ATC (Calculated)
11:46PM -18.8708 122.9269 143° Southeast 35,000  Level Aus ATC (Calculated)
11:47PM -19.0481 123.0625 143° Southeast 35,000  Level Aus ATC (Calculated)
11:48PM -19.0550 123.0678 144° Southeast  Level FlightAware Approximate
11:49PM -19.1678 123.1543 144° Southeast  Level FlightAware Approximate
11:49PM -19.1726 123.1580 143° Southeast 35,000  Level Aus ATC (Calculated)
11:50PM -19.2782 123.2391 144° Southeast  Level FlightAware Approximate
11:50PM -19.3309 123.2796 143° Southeast 35,000  Level Aus ATC (Calculated)
11:51PM -19.3567 123.2995 144° Southeast  Level FlightAware Approximate
11:52PM -19.4505 123.3717 144° Southeast  Level FlightAware Approximate
11:53PM -19.5608 123.4568 144° Southeast  Level FlightAware Approximate
11:53PM -19.5532 123.4510 143° Southeast 35,000  Level Aus ATC (Calculated)
11:53PM -19.6204 123.5029 143° Southeast 35,000  Level Aus ATC (Calculated)
11:54PM -19.6204 123.5029 143° Southeast 35,000  Level Aus ATC (Calculated)
11:56PM -19.8299 123.6651 144° Southeast  Level FlightAware Approximate
11:56PM -19.8154 123.6538 142° Southeast 35,000  Level Aus ATC (Calculated)
11:57PM -19.9332 123.7452 142° Southeast 35,000  Level Aus ATC (Calculated)
11:58PM -19.9884 123.7881 142° Southeast 35,000  Level Aus ATC (Calculated)
11:59PM -20.0936 123.8700 142° Southeast 35,000  Level Aus ATC (Calculated)
12:01AM -20.2936 124.0260 144° Southeast  Level FlightAware Approximate
12:01AM -20.3943 124.1048 142° Southeast 35,000  Level Aus ATC (Calculated)
12:02AM -20.4036 124.1121 144° Southeast  Level FlightAware Approximate
12:03AM -20.5245 124.2068 144° Southeast  Level FlightAware Approximate
12:04AM -20.6344 124.2931 144° Southeast  Level FlightAware Approximate
12:04AM -20.6791 124.3282 142° Southeast 35,000  Level Aus ATC (Calculated)
12:05AM -20.7443 124.3795 144° Southeast  Level FlightAware Approximate
12:06AM -20.8091 124.4305 144° Southeast  Level FlightAware Approximate
12:07AM -20.9195 124.5176 144° Southeast  Level FlightAware Approximate
12:08AM -21.0298 124.6048 144° Southeast  Level FlightAware Approximate
12:09AM -21.1401 124.6921 144° Southeast  Level FlightAware Approximate
12:10AM -21.2503 124.7795 144° Southeast  Level FlightAware Approximate
12:10AM -21.2503 124.7795 142° Southeast 35,000  Level Aus ATC (Calculated)
12:12AM -21.4622 124.9481 143° Southeast  Level FlightAware Approximate
12:13AM -21.5718 125.0355 143° Southeast  Level FlightAware Approximate
12:14AM -21.6726 125.1344 143° Southeast  Level Estimated
12:14AM -21.7985 125.2167 142° Southeast 35,000  Level Aus ATC (Calculated)
12:15AM -21.7827 125.2211 144° Southeast  Level FlightAware Approximate
12:16AM -21.9300 125.3219 143° Southeast  Level FlightAware Approximate
12:17AM -22.0394 125.4097 143° Southeast  Level FlightAware Approximate
12:18AM -22.1489 125.4977 143° Southeast  Level FlightAware Approximate
12:19AM -22.2582 125.5858 143° Southeast  Level FlightAware Approximate
12:19AM -22.2700 125.5952 141° Southeast 35,000  Level Aus ATC (Calculated)
12:20AM -22.3793 125.6835 143° Southeast  Level FlightAware Approximate
12:20AM -22.4269 125.7220 141° Southeast 35,000  Level Aus ATC (Calculated)
12:22AM -22.6417 125.8960 143° Southeast  Level FlightAware Approximate
12:23AM -22.7509 125.9848 143° Southeast  Level FlightAware Approximate
12:23AM -22.8971 126.1039 141° Southeast 35,000  Level Aus ATC (Calculated)
12:24AM -22.8600 126.0736 143° Southeast  Level FlightAware Approximate
12:25AM -23.0207 126.2048 143° Southeast  Level FlightAware Approximate
12:26AM -23.1297 126.2940 143° Southeast  Level FlightAware Approximate
12:27AM -23.2386 126.3834 143° Southeast  Level FlightAware Approximate
12:28AM -23.3475 126.4729 143° Southeast  Level FlightAware Approximate
12:28AM -23.4922 126.5922 141° Southeast 35,000  Level Aus ATC (Calculated)
12:29AM -23.4339 126.5441 143° Southeast  Level FlightAware Approximate
12:30AM -23.6173 126.6955 143° Southeast  Level FlightAware Approximate
12:31AM -23.7260 126.7856 143° Southeast  Level FlightAware Approximate
12:31AM -23.7438 126.8003 141° Southeast 35,000  Level Aus ATC (Calculated)
12:32AM -23.8347 126.8757 143° Southeast  Level FlightAware Approximate
12:33AM -23.8937 126.9248 143° Southeast  Level FlightAware Approximate
12:33AM -23.9322 126.9568 141° Southeast 35,000  Level Aus ATC (Calculated)
12:34AM -24.1205 127.1139 140° Southeast 35,000  Level Aus ATC (Calculated)
12:35AM -24.1478 127.1367 143° Southeast  Level FlightAware Approximate
12:36AM -24.2702 127.2391 143° Southeast  Level FlightAware Approximate
12:37AM -24.3691 127.3444 143° Southeast  Level Estimated
12:37AM -24.4901 127.4239 140° Southeast 35,000  Level Aus ATC (Calculated)
12:38AM -24.4790 127.4356 143° Southeast  Level FlightAware Approximate
12:39AM -24.6049 127.5207 143° Southeast  Level FlightAware Approximate
12:40AM -24.7142 127.6130 142° Southeast  Level FlightAware Approximate
12:41AM -24.8234 127.7055 142° Southeast  Level FlightAware Approximate
12:41AM -24.9054 127.7751 140° Southeast 35,000  Level Aus ATC (Calculated)
12:42AM -24.9326 127.7981 142° Southeast  Level FlightAware Approximate
12:43AM -25.0772 127.9212 142° Southeast  Level FlightAware Approximate
12:44AM -25.1867 128.0147 142° Southeast  Level FlightAware Approximate
12:45AM -25.2962 128.1084 142° Southeast  Level FlightAware Approximate
12:46AM -25.4056 128.2022 142° Southeast  Level FlightAware Approximate
12:46AM -25.4972 128.2809 140° Southeast 35,000  Level Aus ATC (Calculated)
12:47AM -25.6154 128.3827 139° Southeast 35,000  Level Aus ATC (Calculated)
12:48AM -25.6776 128.4363 142° Southeast  Level FlightAware Approximate
12:49AM -25.7956 128.5384 142° Southeast  Level FlightAware Approximate
12:49AM -25.8514 128.5867 139° Southeast 35,000  Level Aus ATC (Calculated)
12:51AM -26.0406 128.7510 142° Southeast  Level FlightAware Approximate
12:51AM -26.0872 128.7917 139° Southeast 35,000  Level Aus ATC (Calculated)
12:53AM -26.2670 128.9486 142° Southeast  Level FlightAware Approximate
12:54AM -26.2902 128.9716 139° Southeast  Level FlightAware Approximate
12:54AM -26.4048 129.0840 139° Southeast 35,000  Level Aus ATC (Calculated)
12:56AM -26.5937 129.2696 139° Southeast  Level FlightAware Approximate
12:57AM -26.6975 129.3720 139° Southeast  Level FlightAware Approximate
12:57AM -26.7568 129.4306 139° Southeast 35,000  Level Aus ATC (Calculated)
12:58AM -26.8013 129.4747 139° Southeast  Level FlightAware Approximate
12:59AM -26.9365 129.6089 139° Southeast  Level FlightAware Approximate
01:00AM -27.0401 129.7119 138° Southeast  Level FlightAware Approximate
01:01AM -27.1436 129.8152 138° Southeast  Level FlightAware Approximate
01:02AM -27.2470 129.9186 138° Southeast  Level FlightAware Approximate
01:02AM -27.3180 129.9898 138° Southeast 35,000  Level Aus ATC (Calculated)
01:04AM -27.5091 130.1819 138° Southeast  Level FlightAware Approximate
01:05AM -27.6123 130.2861 138° Southeast  Level FlightAware Approximate
01:06AM -27.7153 130.3904 138° Southeast  Level FlightAware Approximate
01:06AM -27.8073 130.4837 138° Southeast 35,000  Level Aus ATC (Calculated)
01:07AM -27.8770 130.5546 138° Southeast 35,000  Level Aus ATC (Calculated)
01:09AM -28.0664 130.7478 138° Southeast  Level FlightAware Approximate
01:10AM -28.1686 130.8525 138° Southeast  Level FlightAware Approximate
01:11AM -28.2708 130.9574 138° Southeast  Level FlightAware Approximate
01:12AM -28.3728 131.0625 138° Southeast  Level FlightAware Approximate
01:12AM -28.4336 131.1252 138° Southeast 35,000  Level Aus ATC (Calculated)
01:13AM -28.5030 131.1969 138° Southeast 35,000  Level Aus ATC (Calculated)
01:15AM -28.2469 131.1969 North  Level FlightAware Approximate
01:15AM -28.7221 131.4243 138° Southeast 35,000  Level Aus ATC (Calculated)
01:17AM -28.5243 131.2189 318° Northwest  Level FlightAware Approximate
01:17AM -28.9408 131.6527 138° Southeast 35,000  Level Aus ATC (Calculated)
01:19AM -29.1132 131.8729 138° Southeast  Level Estimated
01:20AM -29.2160 131.9790 138° Southeast  Level FlightAware Approximate
01:20AM -29.3771 132.1123 138° Southeast 35,000  Level Aus ATC (Calculated)
01:21AM -29.3188 132.0853 138° Southeast  Level FlightAware Approximate
01:21AM -29.5222 132.2664 138° Southeast 35,000  Level Aus ATC (Calculated)
01:22AM -29.5143 132.2580 137° Southeast  Level FlightAware Approximate
01:23AM -29.6288 132.3800 137° Southeast  Level FlightAware Approximate
01:24AM -29.7302 132.4884 137° Southeast  Level FlightAware Approximate
01:25AM -29.8316 132.5971 137° Southeast  Level FlightAware Approximate
01:25AM -29.9563 132.7312 137° Southeast 35,000  Level Aus ATC (Calculated)
01:26AM -29.9328 132.7060 137° Southeast  Level FlightAware Approximate
01:26AM -30.0285 132.8091 137° Southeast 35,000  Level Aus ATC (Calculated)
01:27AM -30.0625 132.8459 137° Southeast  Level FlightAware Approximate
01:28AM -30.1346 132.9239 137° Southeast  Level FlightAware Approximate
01:29AM -30.2356 133.0334 137° Southeast  Level FlightAware Approximate
01:30AM -30.3365 133.1432 137° Southeast  Level FlightAware Approximate
01:31AM -30.4373 133.2532 137° Southeast  Level FlightAware Approximate
01:31AM -30.6043 133.4361 137° Southeast 35,000  Level Aus ATC (Calculated)
01:32AM -30.5380 133.3634 137° Southeast  Level FlightAware Approximate
01:33AM -30.7099 133.5522 137° Southeast  Level FlightAware Approximate
01:34AM -30.8103 133.6631 137° Southeast  Level FlightAware Approximate
01:35AM -30.9107 133.7742 136° Southeast  Level FlightAware Approximate
01:36AM -30.8103 133.6631 316° Northwest  Level FlightAware Approximate
01:36AM -31.0984 133.9829 137° Southeast 35,000  Level Aus ATC (Calculated)
01:37AM -30.9107 133.7742 136° Southeast  Level FlightAware Approximate
01:38AM -30.9916 133.8640 316° Northwest  Level FlightAware Approximate
01:38AM -31.2376 134.1385 137° Southeast 35,000  Level Aus ATC (Calculated)
01:40AM -31.4107 134.3889 136° Southeast  Level Estimated
01:41AM -31.5165 134.5047 137° Southeast  Level FlightAware Approximate
01:42AM -31.6223 134.6208 137° Southeast  Level FlightAware Approximate
01:43AM -31.7279 134.7372 137° Southeast  Level FlightAware Approximate
01:43AM -31.7926 134.7654 138° Southeast 35,000  Level Aus ATC (Calculated)
01:45AM -31.9987 135.0010 136° Southeast  Level FlightAware Approximate
01:46AM -32.1025 135.1202 136° Southeast  Level FlightAware Approximate
01:47AM -32.2061 135.2396 136° Southeast  Level FlightAware Approximate
01:48AM -32.3096 135.3594 136° Southeast  Level FlightAware Approximate
01:48AM -32.3444 135.3998 311° West 35,000  Level Aus ATC (Calculated)
01:50AM -32.5167 135.6001 136° Southeast  Level FlightAware Approximate
01:50AM -32.1531 135.1440 136° Southeast 654 753 37,100  Level Aus ATC (RADAR)
01:51AM -32.2172 135.2508 125° Southeast 531 611 37,100  Level Aus ATC (RADAR)
01:51AM -32.2799 135.3193 137° Southeast 528 608 37,100  Level Aus ATC (RADAR)
01:52AM -32.3617 135.4070 138° Southeast 530 610 37,100  Level Aus ATC (RADAR)
01:53AM -32.4141 135.4683 135° Southeast 532 612 37,100  Level Aus ATC (RADAR)
01:53AM -32.5079 135.5826 134° Southeast 531 611 37,100  Level Aus ATC (RADAR)
01:54AM -32.5607 135.6432 136° Southeast 531 611 37,100  Level Aus ATC (RADAR)
01:54AM -32.6045 135.6943 135° Southeast 532 612 37,100  Level Aus ATC (RADAR)
01:55AM -32.6661 135.7654 136° Southeast 532 612 37,100  Level Aus ATC (RADAR)
01:56AM -32.7473 135.8744 132° Southeast 534 615 37,100  Level Aus ATC (RADAR)
01:56AM -32.8130 135.9407 140° Southeast 533 613 37,100  Level Aus ATC (RADAR)
01:57AM -32.9003 136.0414 136° Southeast 527 606 37,100  Level Aus ATC (RADAR)
01:58AM -32.9328 136.0839 132° Southeast 525 604 37,100 -120 Level Aus ATC (RADAR)
01:58AM -32.9923 136.1594 135° Southeast 526 605 37,000 -120 Descending FlightAware ADS-B (YPAD / ADL)
01:59AM -33.0415 136.2176 135° Southeast 527 606 37,000  Level FlightAware ADS-B (YPAD / ADL)
01:59AM -33.0775 136.2602 135° Southeast 528 608 37,000  Level FlightAware ADS-B (YPAD / ADL)
02:00AM -33.1866 136.3906 135° Southeast 528 608 37,000  Level FlightAware ADS-B (YPAD / ADL)
02:01AM -33.2536 136.4710 135° Southeast 528 608 37,000  Level FlightAware ADS-B (YPAD / ADL)
02:01AM -33.3070 136.5353 135° Southeast 526 605 37,000  Level FlightAware ADS-B (YPAD / ADL)
02:02AM -33.3584 136.5970 135° Southeast 525 604 37,000  Level FlightAware ADS-B (YPAD / ADL)
02:02AM -33.4088 136.6575 135° Southeast 523 602 37,000 60 Level FlightAware ADS-B (YPAD / ADL)
02:03AM -33.4734 136.7308 135° Southeast 524 603 37,100  Climbing Aus ATC (RADAR)
02:03AM -33.4720 136.7370 135° Southeast 529 609 37,000 -420 Descending FlightAware
02:03AM -33.4953 136.7739 127° Southeast 535 616 37,000  Level FlightAware ADS-B (YPAD / ADL)
02:04AM -33.5360 136.8505 123° Southeast 539 620 37,000  Level FlightAware ADS-B (YPAD / ADL)
02:04AM -33.5814 136.9375 122° Southeast 539 620 37,000  Level FlightAware ADS-B (YPAD / ADL)
02:05AM -33.6216 137.0148 122° Southeast 539 620 37,000  Level FlightAware ADS-B (YPAD / ADL)
02:05AM -33.6658 137.0994 122° Southeast 540 621 37,000  Level FlightAware ADS-B (YPAD / ADL)
02:06AM -33.7075 137.1796 122° Southeast 539 620 37,000  Level FlightAware ADS-B (YPAD / ADL)
02:06AM -33.7456 137.2537 122° Southeast 539 620 37,000  Level FlightAware ADS-B (YPAD / ADL)
02:07AM -33.7874 137.3348 122° Southeast 539 620 37,000  Level FlightAware ADS-B (YPAD / ADL)
02:07AM -33.8272 137.4120 122° Southeast 539 620 37,000  Level FlightAware ADS-B (YPAD / ADL)
02:08AM -33.8623 137.4802 122° Southeast 540 621 37,000  Level FlightAware ADS-B (YPAD / ADL)
02:08AM -33.9069 137.5668 122° Southeast 539 620 37,000  Level FlightAware ADS-B (YPAD / ADL)
02:09AM -33.9580 137.6664 122° Southeast 540 621 37,000  Level FlightAware ADS-B (YPAD / ADL)
02:09AM -33.9999 137.7484 122° Southeast 539 620 37,000  Level FlightAware ADS-B (YPAD / ADL)
02:10AM -34.0395 137.8260 122° Southeast 539 620 37,000  Level FlightAware ADS-B (YPAD / ADL)
02:10AM -34.0789 137.9035 122° Southeast 539 620 37,000  Level FlightAware ADS-B (YPAD / ADL)
02:11AM -34.1179 137.9804 122° Southeast 539 620 37,000  Level FlightAware ADS-B (YPAD / ADL)
02:12AM -34.1628 138.0691 121° Southeast 537 618 37,000  Level FlightAware ADS-B (YPAD / ADL)
02:12AM -34.2015 138.1453 122° Southeast 535 616 37,000  Level FlightAware ADS-B (YPAD / ADL)
02:13AM -34.2464 138.2342 121° Southeast 535 616 37,000  Level FlightAware ADS-B (YPAD / ADL)
02:13AM -34.2849 138.3110 121° Southeast 534 615 37,000  Level FlightAware ADS-B (YPAD / ADL)
02:14AM -34.3234 138.3875 121° Southeast 532 612 37,000  Level FlightAware ADS-B (YPAD / ADL)
02:14AM -34.3628 138.4657 121° Southeast 531 611 37,000  Level FlightAware ADS-B (YPAD / ADL)
02:15AM -34.4123 138.5648 121° Southeast 530 610 37,000  Level FlightAware ADS-B (YPAD / ADL)
02:15AM -34.4510 138.6420 121° Southeast 527 606 37,000  Level FlightAware
02:16AM -34.4652 138.6711 121° Southeast 527 606 37,000  Level FlightAware ADS-B (YPAD / ADL)
02:16AM -34.5028 138.7469 121° Southeast 526 605 37,000  Level FlightAware ADS-B (YPAD / ADL)
02:17AM -34.5410 138.8239 121° Southeast 525 604 37,000  Level FlightAware ADS-B (YPAD / ADL)
02:17AM -34.5770 138.8966 121° Southeast 523 602 37,000  Level FlightAware ADS-B (YPAD / ADL)
02:18AM -34.6161 138.9758 121° Southeast 523 602 37,000  Level FlightAware ADS-B (YPAD / ADL)
02:18AM -34.6553 139.0547 121° Southeast 524 603 37,000  Level FlightAware ADS-B (YPAD / ADL)
02:19AM -34.6983 139.1419 121° Southeast 523 602 37,000  Level FlightAware ADS-B (YPAD / ADL)
02:19AM -34.7352 139.2172 121° Southeast 522 601 37,000  Level FlightAware ADS-B (YPAD / ADL)
02:20AM -34.7785 139.3058 121° Southeast 524 603 37,000  Level FlightAware ADS-B (YPAD / ADL)
02:20AM -34.8159 139.3826 121° Southeast 525 604 37,000  Level FlightAware ADS-B (YPAD / ADL)
02:21AM -34.8525 139.4579 121° Southeast 525 604 37,000  Level FlightAware ADS-B (YPAD / ADL)
02:21AM -34.9036 139.5630 121° Southeast 525 604 37,000 -360 Level FlightAware ADS-B (YPAD / ADL)
02:22AM -34.9520 139.6631 121° Southeast 527 606 36,600 -780 Descending FlightAware ADS-B (YPAD / ADL)
02:23AM -35.0040 139.7700 121° Southeast 533 613 36,000 -960 Descending FlightAware ADS-B (YPAD / ADL)
02:23AM -35.0408 139.8454 121° Southeast 531 611 35,500 -840 Descending FlightAware ADS-B (YPAD / ADL)
02:24AM -35.0795 139.9259 120° Southeast 525 604 35,200 -540 Descending FlightAware ADS-B (YPAD / ADL)
02:24AM -35.1158 140.0027 120° Southeast 523 602 35,000 -240 Descending FlightAware ADS-B (YPAD / ADL)
02:25AM -35.1507 140.0769 120° Southeast 523 602 35,000  Level FlightAware ADS-B (YPAD / ADL)
02:25AM -35.1896 140.1585 120° Southeast 524 603 35,000  Level FlightAware ADS-B (YPAD / ADL)
02:26AM -35.2273 140.2375 120° Southeast 525 604 35,000  Level FlightAware ADS-B (YPAD / ADL)
02:26AM -35.2647 140.3156 120° Southeast 517 595 35,000  Level FlightAware ADS-B (YPAD / ADL)
02:27AM -35.3048 140.3998 120° Southeast 514 592 35,000  Level FlightAware ADS-B (YPAD / ADL)
02:27AM -35.3418 140.4780 120° Southeast 514 592 35,000 60 Level FlightAware ADS-B (YPAD / ADL)
02:28AM -35.3800 140.5612 120° Southeast 512 589 35,100  Climbing Aus ATC (RADAR)
02:28AM -35.4110 140.6240 120° Southeast 515 593 35,000 -120 Descending FlightAware
02:29AM -35.4510 140.7110 119° Southeast 516 594 35,000  Level FlightAware
02:30AM -35.4940 140.8020 120° Southeast 516 594 35,000 60 Level FlightAware
02:30AM -35.5340 140.8895 120° Southeast 512 589 35,100  Climbing Aus ATC (RADAR)
02:30AM -35.5420 140.9040 120° Southeast 516 594 35,000 -180 Descending FlightAware
02:31AM -35.5760 140.9770 120° Southeast 518 596 35,000  Level FlightAware
02:31AM -35.6190 141.0680 120° Southeast 526 605 35,000  Level FlightAware
02:32AM -35.6670 141.1720 120° Southeast 531 611 35,000  Level FlightAware
02:32AM -35.7050 141.2540 120° Southeast 531 611 35,000  Level FlightAware
02:33AM -35.7460 141.3440 119° Southeast 532 612 35,000  Level FlightAware
02:34AM -35.7860 141.4310 120° Southeast 532 612 35,000  Level FlightAware
02:34AM -35.8300 141.5270 120° Southeast 522 601 35,000  Level FlightAware
02:35AM -35.8700 141.6130 120° Southeast 508 585 35,000 60 Level FlightAware
02:35AM -35.9086 141.7010 120° Southeast 495 570 35,100  Climbing Aus ATC (RADAR)
02:35AM -35.9120 141.7060 120° Southeast 493 567 35,000  Descending FlightAware
02:36AM -35.9470 141.7851 120° Southeast 481 554 35,100  Climbing Aus ATC (RADAR)
02:36AM -35.9490 141.7870 120° Southeast 479 551 35,000 -180 Descending FlightAware
02:37AM -35.9850 141.8670 119° Southeast 476 548 35,000 60 Level FlightAware
02:37AM -36.0278 141.9620 119° Southeast 472 543 35,100  Climbing Aus ATC (RADAR)
02:37AM -36.0290 141.9640 119° Southeast 475 547 35,000 -180 Descending FlightAware
02:38AM -36.0670 142.0480 119° Southeast 473 544 35,000 60 Level FlightAware
02:38AM -36.1064 142.1392 119° Southeast 469 540 35,100  Climbing Aus ATC (RADAR)
02:38AM -36.1030 142.1280 119° Southeast 473 544 35,000  Descending FlightAware
02:39AM -36.1384 142.2101 119° Southeast 470 541 35,100  Climbing Aus ATC (RADAR)
02:39AM -36.1570 142.2480 119° Southeast 474 545 35,000 -180 Descending FlightAware
02:40AM -36.1900 142.3210 119° Southeast 475 547 35,000 -120 Level FlightAware
02:40AM -36.2241 142.3991 119° Southeast 471 542 34,900  Descending Aus ATC (RADAR)
02:40AM -36.2270 142.4060 119° Southeast 475 547 35,000 120 Climbing FlightAware
02:41AM -36.2640 142.4880 119° Southeast 475 547 35,000  Level FlightAware
02:41AM -36.3010 142.5720 119° Southeast 476 548 35,000  Level FlightAware
02:42AM -36.3380 142.6540 119° Southeast 478 550 35,000  Level FlightAware
02:43AM -36.3760 142.7400 119° Southeast 478 550 35,000  Level FlightAware
02:43AM -36.4120 142.8220 119° Southeast 479 551 35,000  Level FlightAware
02:44AM -36.4470 142.9110 116° Southeast 481 554 35,000  Level FlightAware
02:44AM -36.4800 143.0120 112° Southeast 482 555 35,000  Level FlightAware
02:45AM -36.5110 143.1030 113° Southeast 483 556 35,000 -120 Level FlightAware
02:46AM -36.5384 143.1857 113° Southeast 481 554 34,900  Descending Aus ATC (RADAR)
02:46AM -36.5450 143.2060 113° Southeast 483 556 35,000 120 Climbing FlightAware
02:46AM -36.5750 143.2980 112° Southeast 483 556 35,000  Level FlightAware
02:47AM -36.6000 143.3740 112° Southeast 485 558 35,000  Level FlightAware
02:47AM -36.6300 143.4660 112° Southeast 484 557 35,000  Level FlightAware
02:48AM -36.6640 143.5680 113° Southeast 483 556 35,000  Level FlightAware
02:49AM -36.6940 143.6610 112° Southeast 484 557 35,000  Level FlightAware
02:49AM -36.7190 143.7360 113° Southeast 485 558 35,000  Level FlightAware
02:50AM -36.7480 143.8270 112° Southeast 485 558 35,000 -360 Level FlightAware
02:50AM -36.7810 143.9300 112° Southeast 477 549 34,600 -1,140 Descending FlightAware
02:51AM -36.8110 144.0200 113° Southeast 474 545 33,600 -1,680 Descending FlightAware
02:52AM -36.8430 144.1200 112° Southeast 464 534 32,500 -1,620 Descending FlightAware
02:52AM -36.8700 144.2070 111° Southeast 457 526 31,600 -1,560 Descending FlightAware
02:53AM -36.8970 144.2900 112° Southeast 448 516 30,700 -1,620 Descending FlightAware
02:53AM -36.9213 144.3652 112° Southeast 435 501 29,900 -1,200 Descending Aus ATC (RADAR)
02:53AM -36.9240 144.3740 112° Southeast 433 498 30,000 -420 Climbing FlightAware
02:54AM -36.9380 144.4310 107° East 424 488 29,700 -600 Descending FlightAware
02:54AM -36.9260 144.5010 78° East 402 463 29,500 -540 Descending FlightAware
02:55AM -36.9070 144.5260 46° Northeast 391 450 29,300 -480 Descending FlightAware
02:55AM -36.8930 144.5380 34° Northeast 379 436 29,300 -300 Level FlightAware
02:55AM -36.8770 144.5460 22° Northeast 359 413 29,200 -600 Descending FlightAware
02:55AM -36.8610 144.5500 11° North 354 407 29,100 -540 Descending FlightAware
02:55AM -36.8220 144.5430 352° North 322 371 28,900 -540 Descending FlightAware
02:56AM -36.8090 144.5340 331° Northwest 315 362 28,800 -600 Descending FlightAware
02:56AM -36.7870 144.5100 319° Northwest 308 354 28,600 -540 Descending FlightAware
02:57AM -36.7500 144.4580 312° West 316 364 28,300 -600 Descending FlightAware
02:57AM -36.7230 144.4180 310° West 312 359 28,000 -720 Descending FlightAware
02:58AM -36.6911 144.3716 310° West 309 356 27,600 -540 Descending Aus ATC (RADAR)
02:58AM -36.6890 144.3700 310° West 310 357 27,700  Climbing FlightAware
02:58AM -36.6760 144.3390 298° West 308 354 27,600 -420 Descending FlightAware
02:58AM -36.6730 144.3220 282° West 307 353 27,500 -600 Descending FlightAware
02:59AM -36.6760 144.2720 266° West 309 356 27,200 -540 Descending FlightAware
02:59AM -36.6850 144.2470 246° West 309 356 27,100 -360 Descending FlightAware
02:59AM -36.7050 144.2200 227° Southwest 319 367 27,000 -540 Descending FlightAware
02:59AM -36.7250 144.2060 209° Southwest 321 369 26,800 -600 Descending FlightAware
03:00AM -36.7500 144.1990 193° South 326 375 26,700 -420 Descending FlightAware
03:00AM -36.7920 144.2070 171° South 342 394 26,500 -480 Descending FlightAware
03:00AM -36.8080 144.2190 149° Southeast 352 405 26,400 -720 Descending FlightAware
03:01AM -36.8280 144.2430 136° Southeast 356 410 26,200 -600 Descending FlightAware
03:01AM -36.8650 144.2980 130° Southeast 348 400 25,900 -540 Descending FlightAware
03:02AM -36.9080 144.3590 131° Southeast 346 398 25,600 -480 Descending FlightAware
03:02AM -36.9340 144.3970 131° Southeast 343 395 25,400 -540 Descending FlightAware
03:03AM -36.9410 144.4140 117° Southeast 348 400 25,300 -600 Descending FlightAware
03:03AM -36.9450 144.4360 103° East 357 411 25,200 -480 Descending FlightAware
03:03AM -36.9320 144.4940 74° East 360 414 25,000 -480 Descending FlightAware
03:03AM -36.9210 144.5090 47° Northeast 359 413 24,900 -600 Descending FlightAware
03:04AM -36.9070 144.5210 34° Northeast 356 410 24,800 -600 Descending FlightAware
03:04AM -36.8920 144.5280 20° North 350 403 24,700 -600 Descending FlightAware
03:04AM -36.8760 144.5310 North 335 386 24,600 -420 Descending FlightAware
03:04AM -36.8460 144.5230 348° North 331 381 24,500 -420 Descending FlightAware
03:04AM -36.8330 144.5130 328° Northwest 319 367 24,400 -600 Descending FlightAware
03:05AM -36.8220 144.5000 317° Northwest 316 364 24,300 -540 Descending FlightAware
03:05AM -36.7870 144.4510 312° West 321 369 24,000 -600 Descending FlightAware
03:06AM -36.7516 144.3993 312° West 326 375 23,600 -480 Descending Aus ATC (RADAR)
03:06AM -36.7470 144.3940 312° West 325 374 23,700 -600 Climbing FlightAware
03:06AM -36.7115 144.3417 312° West 328 377 23,200 -540 Descending Aus ATC (RADAR)
03:06AM -36.7120 144.3430 312° West 331 381 23,400 600 Climbing FlightAware
03:07AM -36.7040 144.3270 302° West 320 368 23,300 -600 Descending FlightAware
03:07AM -36.6990 144.3100 290° West 314 361 23,200 -300 Descending FlightAware
03:07AM -36.6970 144.2930 278° West 310 357 23,200 -360 Level FlightAware
03:07AM -36.7040 144.2500 259° West 295 339 23,000 -540 Descending FlightAware
03:07AM -36.7120 144.2360 235° Southwest 289 333 22,900 -420 Descending FlightAware
03:08AM -36.7310 144.2140 223° Southwest 287 330 22,800 -420 Descending FlightAware
03:08AM -36.7430 144.2070 205° Southwest 277 319 22,700 -300 Descending FlightAware
03:08AM -36.7560 144.2030 194° South 281 323 22,700 -300 Level FlightAware
03:08AM -36.7690 144.2020 184° South 277 319 22,600 -600 Descending FlightAware
03:09AM -36.7990 144.2120 165° South 267 307 22,400 -540 Descending FlightAware
03:09AM -36.8100 144.2210 147° Southeast 270 311 22,300 -420 Descending FlightAware
03:09AM -36.8290 144.2450 135° Southeast 276 318 22,200 -420 Descending FlightAware
03:10AM -36.8620 144.2930 131° Southeast 276 318 21,900 -420 Descending FlightAware
03:10AM -36.8920 144.3350 132° Southeast 274 315 21,700 -420 Descending FlightAware
03:11AM -36.9170 144.3710 131° Southeast 280 322 21,500 -420 Descending FlightAware
03:11AM -36.9370 144.4050 126° Southeast 287 330 21,300 -360 Descending FlightAware
03:12AM -36.9410 144.4240 105° East 294 338 21,300 -480 Level FlightAware
03:12AM -36.9370 144.4610 82° East 313 360 21,100 -600 Descending FlightAware
03:12AM -36.9290 144.4770 58° Northeast 319 367 21,000 -480 Descending FlightAware
03:12AM -36.9120 144.4950 40° Northeast 328 377 20,900 -480 Descending FlightAware
03:12AM -36.8980 144.5010 19° North 331 381 20,800 -600 Descending FlightAware
03:13AM -36.8820 144.5030 North 330 380 20,700 -660 Descending FlightAware
03:13AM -36.8550 144.4920 342° North 324 373 20,500 -600 Descending FlightAware
03:13AM -36.8420 144.4790 321° Northwest 317 365 20,400 -480 Descending FlightAware
03:14AM -36.8140 144.4380 310° West 316 364 20,200 -480 Descending FlightAware
03:14AM -36.7810 144.3910 311° West 315 362 19,900 -600 Descending FlightAware
03:15AM -36.7420 144.3350 311° West 313 360 19,500 -540 Descending FlightAware
03:15AM -36.7140 144.2960 312° West 309 356 19,300 -480 Descending FlightAware
03:16AM -36.6810 144.2480 312° West 308 354 19,000 -660 Descending FlightAware
03:16AM -36.6796 144.2457 312° West 305 351 18,900 -720 Descending Aus ATC (RADAR)
03:16AM -36.6620 144.2140 305° West 298 343 18,700 -600 Descending FlightAware
03:17AM -36.6580 144.1960 285° West 288 331 18,600 -600 Descending FlightAware
03:17AM -36.6680 144.1500 255° West 269 310 18,300 -720 Descending FlightAware
03:17AM -36.6790 144.1340 229° Southwest 261 300 18,100 -720 Descending FlightAware
03:17AM -36.6890 144.1260 213° Southwest 257 296 18,000 -600 Descending FlightAware
03:18AM -36.7010 144.1210 198° South 254 292 17,900 -900 Descending FlightAware
03:18AM -36.7130 144.1190 188° South 253 291 17,700 -840 Descending FlightAware
03:18AM -36.7350 144.1240 170° South 261 300 17,500 -420 Descending FlightAware
03:18AM -36.7460 144.1300 156° South 270 311 17,500 -600 Level FlightAware
03:18AM -36.7570 144.1410 141° Southeast 279 321 17,300 -720 Descending FlightAware
03:19AM -36.7890 144.1860 132° Southeast 303 349 17,000 -480 Descending FlightAware
03:20AM -36.8250 144.2380 131° Southeast 293 337 16,700 -720 Descending FlightAware
03:20AM -36.8550 144.2820 130° Southeast 292 336 16,100 -1,080 Descending FlightAware
03:21AM -36.8870 144.3270 132° Southeast 296 341 15,500 -1,140 Descending FlightAware
03:21AM -36.9148 144.3675 132° Southeast 292 336 14,900 -1,080 Descending Aus ATC (RADAR)
03:21AM -36.9180 144.3720 132° Southeast 294 338 14,900 -1,080 Level FlightAware
03:22AM -36.9457 144.4118 132° Southeast 289 333 14,300 -900 Descending Aus ATC (RADAR)
03:22AM -36.9490 144.4170 132° Southeast 295 339 14,400 -960 Climbing FlightAware
03:23AM -36.9810 144.4620 132° Southeast 291 335 13,700 -1,320 Descending FlightAware
03:23AM -37.0110 144.5060 131° Southeast 284 327 12,900 -1,320 Descending FlightAware
03:24AM -37.0420 144.5490 132° Southeast 284 327 12,200 -1,440 Descending FlightAware
03:24AM -37.0700 144.5830 136° Southeast 280 322 11,400 -1,500 Descending FlightAware
03:25AM -37.1030 144.6060 151° Southeast 272 313 10,700 -1,380 Descending FlightAware
03:25AM -37.1360 144.6290 151° Southeast 277 319 10,000 -1,500 Descending FlightAware
03:26AM -37.1530 144.6410 151° Southeast 275 316 9,600 -1,620 Descending FlightAware
03:26AM -37.1750 144.6560 151° Southeast 272 313 9,100 -1,380 Descending FlightAware
03:26AM -37.1920 144.6680 151° Southeast 272 313 8,800 -1,380 Descending FlightAware
03:26AM -37.2130 144.6830 150° Southeast 270 311 8,300 -1,380 Descending FlightAware
03:27AM -37.2300 144.6950 151° Southeast 268 308 8,000 -1,200 Descending FlightAware
03:27AM -37.2510 144.7090 152° Southeast 268 308 7,600 -1,320 Descending FlightAware
03:27AM -37.2680 144.7210 151° Southeast 269 310 7,200 -1,560 Descending FlightAware
03:28AM -37.2900 144.7360 152° Southeast 268 308 6,700 -1,320 Descending FlightAware
03:28AM -37.3110 144.7510 150° Southeast 256 295 6,400 -720 Descending FlightAware
03:28AM -37.3360 144.7660 154° Southeast 235 270 6,200 -720 Descending FlightAware
03:29AM -37.3570 144.7730 165° South 228 262 5,900 -780 Descending FlightAware
03:29AM -37.3770 144.7770 171° South 219 252 5,700 -480 Descending FlightAware
03:29AM -37.3960 144.7820 168° South 209 241 5,600 -540 Descending FlightAware
03:30AM -37.4110 144.7860 168° South 205 236 5,400 -1,080 Descending FlightAware
03:30AM -37.4290 144.7900 170° South 198 228 5,000 -1,200 Descending FlightAware
03:30AM -37.4470 144.7940 170° South 190 219 4,600 -1,080 Descending FlightAware
03:31AM -37.4640 144.7980 169° South 182 209 4,300 -900 Descending FlightAware
03:31AM -37.4790 144.8020 168° South 166 191 4,000 -900 Descending FlightAware
03:31AM -37.4930 144.8050 170° South 150 173 3,700 -780 Descending FlightAware
03:32AM -37.5060 144.8070 173° South 134 154 3,500 -780 Descending FlightAware
03:32AM -37.5180 144.8100 169° South 133 153 3,200 -780 Descending FlightAware
03:32AM -37.5300 144.8120 172° South 133 153 3,000 -720 Descending FlightAware
03:33AM -37.5460 144.8150 172° South 134 154 2,700 -720 Descending FlightAware
03:33AM -37.5520 144.8160 172° South 134 154 2,600 -840 Descending FlightAware
03:33AM -37.5640 144.8180 172° South 133 153 2,300 -720 Descending FlightAware
03:34AM -37.5840 144.8220 171° South 128 147 2,000 -720 Descending FlightAware
03:34AM -37.6000 144.8250 171° South 132 152 1,600 -1,020 Descending FlightAware
03:34AM -37.6056 144.8258 171° South 130 150 1,400 -600 Descending Aus ATC (RADAR)
03:35AM -37.6140 144.8270 174° South 133 153 1,400 -480 Level FlightAware
03:35AM -37.6280 144.8300 170° South 137 158 1,100 -480 Descending FlightAware
03:36AM -37.6450 144.8330 172° South 135 155 1,000 240 Descending FlightAware
03:36AM -37.6610 144.8360 172° South 133 153 1,300 1,680 Climbing FlightAware
03:36AM -37.6740 144.8380 173° South 144 166 2,100 1,800 Climbing FlightAware
03:37AM -37.6880 144.8410 170° South 163 188 2,500 1,740 Climbing FlightAware
03:37AM -37.7100 144.8450 172° South 192 221 3,400 1,440 Climbing FlightAware
03:37AM -37.7280 144.8480 172° South 200 230 3,600 780 Climbing FlightAware
03:37AM -37.7370 144.8510 165° South 207 238 3,800 900 Climbing FlightAware
03:38AM -37.7460 144.8580 148° Southeast 216 249 3,900 360 Climbing FlightAware
03:38AM -37.7490 144.8640 122° Southeast 224 258 3,900 780 Level FlightAware
03:38AM -37.7540 144.8750 120° Southeast 235 270 4,100 780 Climbing FlightAware
03:38AM -37.7550 144.8820 100° East 241 277 4,100  Level FlightAware
03:38AM -37.7550 144.8880 90° East 246 283 4,100  Level FlightAware
03:38AM -37.7500 144.9190 78° East 257 296 4,100  Level FlightAware
03:39AM -37.7440 144.9320 60° Northeast 257 296 4,100  Level FlightAware
03:39AM -37.7350 144.9420 41° Northeast 252 290 4,100  Level FlightAware
03:39AM -37.7260 144.9480 28° Northeast 262 302 4,100  Level FlightAware
03:39AM -37.7020 144.9600 22° Northeast 263 303 4,100  Level FlightAware
03:40AM -37.6740 144.9750 23° Northeast 263 303 4,100  Level FlightAware
03:40AM -37.6520 144.9870 23° Northeast 258 297 4,100  Level FlightAware
03:40AM -37.6460 144.9890 15° North 264 304 4,100  Level FlightAware
03:40AM -37.6220 144.9920 North 256 295 4,100  Level FlightAware
03:41AM -37.6020 144.9950 North 256 295 4,100  Level FlightAware
03:41AM -37.5620 144.9890 353° North 247 284 4,100  Level FlightAware
03:42AM -37.5380 144.9830 349° North 251 289 4,100  Level FlightAware
03:42AM -37.5160 144.9770 348° North 229 264 4,100  Level FlightAware
03:42AM -37.5050 144.9710 337° Northwest 218 251 4,100  Level FlightAware
03:42AM -37.4840 144.9560 330° Northwest 221 254 4,100  Level FlightAware
03:43AM -37.4660 144.9430 330° Northwest 220 253 4,100  Level FlightAware
03:43AM -37.4390 144.9230 330° Northwest 223 257 4,100  Level FlightAware
03:43AM -37.4320 144.9150 318° Northwest 215 247 4,100  Level FlightAware
03:44AM -37.4250 144.9060 314° West 208 239 4,100  Level FlightAware
03:44AM -37.4100 144.8840 311° West 200 230 4,100  Level FlightAware
03:44AM -37.4000 144.8660 305° West 185 213 4,100  Level FlightAware
03:44AM -37.4000 144.8610 270° West 176 203 4,100  Level FlightAware
03:45AM -37.4050 144.8440 250° West 163 188 4,100  Level FlightAware
03:45AM -37.4110 144.8380 218° Southwest 160 184 4,100  Level FlightAware
03:45AM -37.4240 144.8280 211° Southwest 161 185 4,100  Level FlightAware
03:46AM -37.4360 144.8190 211° Southwest 143 165 4,100  Level FlightAware
03:46AM -37.4460 144.8110 212° Southwest 137 158 4,100  Level FlightAware
03:46AM -37.4550 144.8040 212° Southwest 142 163 4,100  Level FlightAware
03:46AM -37.4600 144.8010 205° Southwest 141 162 4,100  Level FlightAware
03:46AM -37.4650 144.8000 189° South 142 163 4,100 -600 Level FlightAware
03:47AM -37.4680 144.7990 195° South 144 166 4,000 -720 Descending FlightAware
03:47AM -37.4810 144.8020 170° South 149 171 3,800 -480 Descending FlightAware
03:47AM -37.5020 144.8070 169° South 158 182 3,600 -600 Descending FlightAware
03:48AM -37.5170 144.8090 174° South 159 183 3,300 -960 Descending FlightAware
03:48AM -37.5340 144.8130 169° South 155 178 2,900 -840 Descending FlightAware
03:48AM -37.5460 144.8150 172° South 152 175 2,700 -780 Descending FlightAware
03:49AM -37.5620 144.8180 172° South 142 163 2,400 -900 Descending FlightAware
03:49AM -37.5750 144.8200 173° South 129 148 2,100 -780 Descending FlightAware
03:50AM -37.5970 144.8240 172° South 130 150 1,700 -660 Descending FlightAware
03:50AM -37.6140 144.8280 169° South 130 150 1,400 -780 Descending FlightAware
03:51AM -37.6260 144.8300 172° South 134 154 1,100 -840 Descending FlightAware
03:51AM -37.6310 144.8310 171° South 136 157 1,000 -180 Descending FlightAware
03:51AM -37.6440 144.8330 173° South 136 157 1,000  Level FlightAware